KBKT/BKT METAR and TAF weather

Enter ICAO airport designator
Station Type Date Time Source
KBKT METAR 2018/10/19 15:55 UTC NOAA

KBKT 191555Z AUTO 18012G16KT 10SM CLR 16/06 A3034 RMK AO1 T01590058


Station Type Date Time Source
KBKT Decoded METAR 2018/10/19 15:55 UTC NOAA

Ft. Pickett / Blackstone, VA, United States (KBKT) 37-05N 077-57W
Oct 19, 2018 - 11:55 AM EDT / 2018.10.19 1555 UTC
Wind: from the S (180 degrees) at 14 MPH (12 KT) gusting to 18 MPH (16 KT):0
Visibility: 10 mile(s):0
Sky conditions: clear
Temperature: 60.6 F (15.9 C)
Dew Point: 42.4 F (5.8 C)
Relative Humidity: 51%
Pressure (altimeter): 30.34 in. Hg (1027 hPa)
ob: KBKT 191555Z AUTO 18012G16KT 10SM CLR 16/06 A3034 RMK AO1 T01590058
cycle: 16

Station Type Date Time Source
KBKT TAF UTC NOAA

Error!


Example: see airport list